createdAt,value
2024-01-24T00:00:03.060Z,12.00
2024-01-24T00:03:44.945Z,12.00
2024-01-24T00:07:27.633Z,12.10
2024-01-24T00:11:09.448Z,12.10
2024-01-24T00:14:51.241Z,12.00
2024-01-24T00:18:33.205Z,12.00
2024-01-24T00:22:15.613Z,12.00
2024-01-24T00:25:57.459Z,11.90
2024-01-24T00:29:39.497Z,12.00
2024-01-24T00:33:21.896Z,11.90
2024-01-24T00:37:03.843Z,12.00
2024-01-24T00:40:45.643Z,12.00
2024-01-24T00:44:27.472Z,12.00
2024-01-24T00:48:09.426Z,11.90
2024-01-24T00:51:51.326Z,11.90
2024-01-24T00:55:33.349Z,11.90
2024-01-24T00:59:15.170Z,11.90
2024-01-24T01:02:57.013Z,12.00
2024-01-24T01:06:40.095Z,11.90
2024-01-24T01:10:22.160Z,11.90
2024-01-24T01:14:04.621Z,11.90
2024-01-24T01:17:46.492Z,12.00
2024-01-24T01:21:28.577Z,11.90
2024-01-24T01:25:10.456Z,11.90
2024-01-24T01:28:52.233Z,11.90
2024-01-24T01:32:34.587Z,11.90
2024-01-24T01:36:22.858Z,11.80
2024-01-24T01:40:07.514Z,11.80
2024-01-24T01:43:49.301Z,11.80
2024-01-24T01:47:31.294Z,11.80
2024-01-24T01:51:14.278Z,11.80
2024-01-24T01:54:56.214Z,11.80
2024-01-24T01:58:39.334Z,11.70
2024-01-24T02:02:21.218Z,11.60
2024-01-24T02:06:03.238Z,11.50
2024-01-24T02:09:45.539Z,11.50
2024-01-24T02:13:34.073Z,11.40
2024-01-24T02:17:15.927Z,11.40
2024-01-24T02:20:58.014Z,11.40
2024-01-24T02:24:39.950Z,11.30
2024-01-24T02:28:22.036Z,11.30
2024-01-24T02:32:04.017Z,11.30
2024-01-24T02:35:45.808Z,11.30
2024-01-24T02:39:27.752Z,11.20
2024-01-24T02:43:09.582Z,11.20
2024-01-24T02:46:51.351Z,11.20
2024-01-24T02:50:33.126Z,11.10
2024-01-24T02:54:15.014Z,11.10
2024-01-24T02:57:56.884Z,11.10
2024-01-24T03:01:38.811Z,11.10
2024-01-24T03:05:20.627Z,11.10
2024-01-24T03:09:03.081Z,11.20
2024-01-24T03:12:44.966Z,11.30
2024-01-24T03:16:27.081Z,11.30
2024-01-24T03:20:09.211Z,11.30
2024-01-24T03:23:51.007Z,11.20
2024-01-24T03:27:33.385Z,11.10
2024-01-24T03:31:15.278Z,11.10
2024-01-24T03:34:58.794Z,11.00
2024-01-24T03:38:40.855Z,10.90
2024-01-24T03:42:22.715Z,10.80
2024-01-24T03:46:04.701Z,10.80
2024-01-24T03:49:46.507Z,10.80
2024-01-24T03:53:28.306Z,10.80
2024-01-24T03:57:10.096Z,10.80
2024-01-24T04:00:53.823Z,10.80
2024-01-24T04:04:36.151Z,10.90
2024-01-24T04:08:18.199Z,10.90
2024-01-24T04:11:59.989Z,10.90
2024-01-24T04:15:45.181Z,10.90
2024-01-24T04:19:27.443Z,10.90
2024-01-24T04:23:09.492Z,11.00
2024-01-24T04:26:51.265Z,11.00
2024-01-24T04:30:33.253Z,10.90
2024-01-24T04:34:18.286Z,10.90
2024-01-24T04:38:00.297Z,10.90
2024-01-24T04:41:42.291Z,10.80
2024-01-24T04:45:24.098Z,10.80
2024-01-24T04:49:06.017Z,10.90
2024-01-24T04:52:47.954Z,10.80
2024-01-24T04:56:29.752Z,10.80
2024-01-24T05:00:13.307Z,10.70
2024-01-24T05:03:55.997Z,10.70
2024-01-24T05:07:37.910Z,10.60
2024-01-24T05:11:19.739Z,10.60
2024-01-24T05:15:01.573Z,10.60
2024-01-24T05:18:44.133Z,10.60
2024-01-24T05:22:25.990Z,10.60
2024-01-24T05:26:07.771Z,10.60
2024-01-24T05:29:49.603Z,10.50
2024-01-24T05:33:31.735Z,10.50
2024-01-24T05:37:13.621Z,10.40
2024-01-24T05:40:55.435Z,10.40
2024-01-24T05:44:37.221Z,10.40
2024-01-24T05:48:19.585Z,10.40
2024-01-24T05:52:01.581Z,10.30
2024-01-24T05:55:43.429Z,10.30
2024-01-24T05:59:25.248Z,10.30
2024-01-24T06:03:07.168Z,10.30
2024-01-24T06:06:49.132Z,10.30
2024-01-24T06:10:31.134Z,10.20
2024-01-24T06:14:12.927Z,10.30
2024-01-24T06:17:54.771Z,10.20
2024-01-24T06:21:36.655Z,10.10
2024-01-24T06:25:18.464Z,10.20
2024-01-24T06:29:00.284Z,10.10
2024-01-24T06:32:42.144Z,10.10
2024-01-24T06:36:24.146Z,10.00
2024-01-24T06:40:07.330Z,10.00
2024-01-24T06:43:49.168Z,10.00
2024-01-24T06:47:31.036Z,10.00
2024-01-24T06:51:14.438Z,10.00
2024-01-24T06:54:56.409Z,10.00
2024-01-24T06:58:38.867Z,10.00
2024-01-24T07:02:20.674Z,10.00
2024-01-24T07:06:06.426Z,10.00
2024-01-24T07:09:48.552Z,9.90
2024-01-24T07:13:30.401Z,10.00
2024-01-24T07:17:12.200Z,9.90
2024-01-24T07:20:54.110Z,9.90
2024-01-24T07:24:36.063Z,9.90
2024-01-24T07:28:17.877Z,9.90
2024-01-24T07:31:59.678Z,9.80
2024-01-24T07:35:42.306Z,9.80
2024-01-24T07:39:24.179Z,9.80
2024-01-24T07:43:06.523Z,9.80
2024-01-24T07:46:48.468Z,9.80
2024-01-24T07:50:30.311Z,9.80
2024-01-24T07:54:12.176Z,9.80
2024-01-24T07:57:54.084Z,9.90
2024-01-24T08:01:36.057Z,9.90
2024-01-24T08:05:18.281Z,9.90
2024-01-24T08:09:00.869Z,9.90
2024-01-24T08:12:43.439Z,9.90
2024-01-24T08:16:25.475Z,9.90
2024-01-24T08:20:11.004Z,9.90
2024-01-24T08:23:52.785Z,9.90
2024-01-24T08:27:36.314Z,9.90
2024-01-24T08:31:18.300Z,9.80
2024-01-24T08:35:00.507Z,9.80
2024-01-24T08:38:44.748Z,9.80
2024-01-24T08:42:26.919Z,9.80
2024-01-24T08:46:08.822Z,9.80
2024-01-24T08:49:51.857Z,9.80
2024-01-24T08:53:33.932Z,9.90
2024-01-24T08:57:16.168Z,9.90
2024-01-24T09:00:58.121Z,9.90
2024-01-24T09:04:41.684Z,9.90
2024-01-24T09:08:24.283Z,10.00
2024-01-24T09:12:06.294Z,9.90
2024-01-24T09:15:48.879Z,10.00
2024-01-24T09:19:31.695Z,10.10
2024-01-24T09:23:14.356Z,10.10
2024-01-24T09:26:57.235Z,10.10
2024-01-24T09:30:40.557Z,10.10
2024-01-24T09:34:24.761Z,10.10
2024-01-24T09:38:06.711Z,10.10
2024-01-24T09:41:51.671Z,10.10
2024-01-24T09:45:36.371Z,10.20
2024-01-24T09:49:19.853Z,10.20
2024-01-24T09:53:04.721Z,10.30
2024-01-24T09:56:47.054Z,10.30
2024-01-24T10:00:29.010Z,10.30
2024-01-24T10:04:14.784Z,10.30
2024-01-24T10:07:57.056Z,10.40
2024-01-24T10:11:38.832Z,10.40
2024-01-24T10:15:22.481Z,10.50
2024-01-24T10:19:06.254Z,10.50
2024-01-24T10:22:48.938Z,10.60
2024-01-24T10:26:31.049Z,10.60
2024-01-24T10:30:14.648Z,10.60
2024-01-24T10:33:57.460Z,10.60
2024-01-24T10:37:42.193Z,10.60
2024-01-24T10:41:24.958Z,10.60
2024-01-24T10:45:07.591Z,10.70
2024-01-24T10:48:51.867Z,10.80
2024-01-24T10:52:34.872Z,10.80
2024-01-24T10:56:17.545Z,10.80
2024-01-24T10:59:59.478Z,10.90
2024-01-24T11:03:42.027Z,10.90
2024-01-24T11:07:31.756Z,11.00
2024-01-24T11:11:16.144Z,11.00
2024-01-24T11:15:07.133Z,11.00
2024-01-24T11:18:49.019Z,11.00
2024-01-24T11:22:31.254Z,11.10
2024-01-24T11:26:20.021Z,11.10
2024-01-24T11:30:18.088Z,11.10
2024-01-24T11:34:12.536Z,11.10
2024-01-24T11:38:26.210Z,11.20
2024-01-24T11:42:25.480Z,11.30
2024-01-24T11:46:10.017Z,11.30
2024-01-24T11:49:53.601Z,11.30
2024-01-24T11:53:35.904Z,11.40
2024-01-24T11:57:17.779Z,11.40
2024-01-24T12:01:10.578Z,11.40
2024-01-24T12:04:54.023Z,11.40
2024-01-24T12:08:35.835Z,11.40
2024-01-24T12:12:18.295Z,11.50
2024-01-24T12:16:02.576Z,11.60
2024-01-24T12:19:46.261Z,11.60
2024-01-24T12:23:28.809Z,11.70
2024-01-24T12:27:11.767Z,11.60
2024-01-24T12:30:54.681Z,11.70
2024-01-24T12:34:36.812Z,11.70
2024-01-24T12:38:18.997Z,11.80
2024-01-24T12:42:03.953Z,11.80
2024-01-24T12:45:45.936Z,11.80
2024-01-24T12:49:28.449Z,11.90
2024-01-24T12:53:10.478Z,11.90
2024-01-24T12:56:52.997Z,11.90
2024-01-24T13:00:36.024Z,11.90
2024-01-24T13:04:18.181Z,11.90
2024-01-24T13:08:00.040Z,11.90
2024-01-24T13:11:42.359Z,11.90
2024-01-24T13:15:25.443Z,11.80
2024-01-24T13:19:07.448Z,11.80
2024-01-24T13:22:49.268Z,11.80
2024-01-24T13:26:31.643Z,11.70
2024-01-24T13:30:16.870Z,11.70
2024-01-24T13:33:58.780Z,11.80
2024-01-24T13:37:40.761Z,11.90
2024-01-24T13:41:25.085Z,11.90
2024-01-24T13:45:07.359Z,12.10
2024-01-24T13:48:49.965Z,12.30
2024-01-24T13:52:33.474Z,12.40
2024-01-24T13:56:15.438Z,12.50
2024-01-24T13:59:57.247Z,12.80
2024-01-24T14:03:40.876Z,13.00
2024-01-24T14:07:23.305Z,13.20
2024-01-24T14:11:11.873Z,13.30
2024-01-24T14:14:54.240Z,13.30
2024-01-24T14:18:36.229Z,13.20
2024-01-24T14:22:18.184Z,13.10
2024-01-24T14:26:00.192Z,13.00
2024-01-24T14:29:42.097Z,12.90
2024-01-24T14:33:28.162Z,12.90
2024-01-24T14:37:16.429Z,12.70
2024-01-24T14:40:58.263Z,12.60
2024-01-24T14:44:40.135Z,12.40
2024-01-24T14:48:22.257Z,12.30
2024-01-24T14:52:04.744Z,12.20
2024-01-24T14:55:46.906Z,12.10
2024-01-24T14:59:30.388Z,12.00
2024-01-24T15:03:12.222Z,11.90
2024-01-24T15:06:54.225Z,11.90
2024-01-24T15:10:36.042Z,11.80
2024-01-24T15:14:17.843Z,11.70
2024-01-24T15:17:59.963Z,11.60
2024-01-24T15:21:42.357Z,11.50
2024-01-24T15:25:24.841Z,11.40
2024-01-24T15:29:06.674Z,11.40
2024-01-24T15:32:48.568Z,11.40
2024-01-24T15:36:31.546Z,11.30
2024-01-24T15:40:17.515Z,11.30
2024-01-24T15:43:59.554Z,11.40
2024-01-24T15:47:41.995Z,11.40
2024-01-24T15:51:24.210Z,11.40
2024-01-24T15:55:06.744Z,11.40
2024-01-24T15:58:48.813Z,11.40
2024-01-24T16:02:31.653Z,11.30
2024-01-24T16:06:13.655Z,11.30
2024-01-24T16:09:55.574Z,11.20
2024-01-24T16:13:38.689Z,11.10
2024-01-24T16:17:20.581Z,11.00
2024-01-24T16:21:04.221Z,11.00
2024-01-24T16:24:46.211Z,10.90
2024-01-24T16:28:28.080Z,10.90
2024-01-24T16:32:10.127Z,10.90
2024-01-24T16:35:52.387Z,10.90
2024-01-24T16:39:34.271Z,10.80
2024-01-24T16:43:16.579Z,10.80
2024-01-24T16:46:58.377Z,10.70
2024-01-24T16:50:40.299Z,10.50
2024-01-24T16:54:22.152Z,10.50
2024-01-24T16:58:04.175Z,10.40
2024-01-24T17:01:46.069Z,10.40
2024-01-24T17:05:27.965Z,10.30
2024-01-24T17:09:10.351Z,10.30
2024-01-24T17:12:52.315Z,10.20
2024-01-24T17:16:34.197Z,10.10
2024-01-24T17:20:16.066Z,10.10
2024-01-24T17:23:57.839Z,10.00
2024-01-24T17:27:39.921Z,9.90
2024-01-24T17:31:22.026Z,9.90
2024-01-24T17:35:04.313Z,9.90
2024-01-24T17:38:46.364Z,9.80
2024-01-24T17:42:28.344Z,9.80
2024-01-24T17:46:10.194Z,9.80
2024-01-24T17:49:52.110Z,9.80
2024-01-24T17:53:33.961Z,9.70
2024-01-24T17:57:16.220Z,9.70
2024-01-24T18:00:58.607Z,9.60
2024-01-24T18:04:40.643Z,9.60
2024-01-24T18:08:23.322Z,9.50
2024-01-24T18:12:05.596Z,9.40
2024-01-24T18:15:47.401Z,9.40
2024-01-24T18:19:31.621Z,9.40
2024-01-24T18:23:13.632Z,9.40
2024-01-24T18:26:55.425Z,9.30
2024-01-24T18:30:38.396Z,9.30
2024-01-24T18:34:21.031Z,9.20
2024-01-24T18:38:02.914Z,9.20
2024-01-24T18:41:45.536Z,9.20
2024-01-24T18:45:27.889Z,9.20
2024-01-24T18:49:10.105Z,9.10
2024-01-24T18:52:52.601Z,9.00
2024-01-24T18:56:34.438Z,9.00
2024-01-24T19:00:16.597Z,9.00
2024-01-24T19:03:58.920Z,9.00
2024-01-24T19:07:43.871Z,9.00
2024-01-24T19:11:26.297Z,8.90
2024-01-24T19:15:08.648Z,8.90
2024-01-24T19:18:50.836Z,8.90
2024-01-24T19:22:32.775Z,8.90
2024-01-24T19:26:14.611Z,8.90
2024-01-24T19:29:56.519Z,8.80
2024-01-24T19:33:40.082Z,8.80
2024-01-24T19:37:23.473Z,8.80
2024-01-24T19:41:05.356Z,8.80
2024-01-24T19:44:47.265Z,8.80
2024-01-24T19:48:29.224Z,8.80
2024-01-24T19:52:12.453Z,8.80
2024-01-24T19:55:54.481Z,8.70
2024-01-24T19:59:36.271Z,8.60
2024-01-24T20:03:18.148Z,8.40
2024-01-24T20:07:00.041Z,8.30
2024-01-24T20:10:42.760Z,8.30
2024-01-24T20:14:24.569Z,8.30
2024-01-24T20:18:06.586Z,8.30
2024-01-24T20:21:48.568Z,8.30
2024-01-24T20:25:31.452Z,8.30
2024-01-24T20:29:13.301Z,8.30
2024-01-24T20:33:01.342Z,8.30
2024-01-24T20:36:47.216Z,8.20
2024-01-24T20:40:29.088Z,8.20
2024-01-24T20:44:10.954Z,8.20
2024-01-24T20:47:57.642Z,8.30
2024-01-24T20:51:42.545Z,8.30
2024-01-24T20:55:24.404Z,8.20
2024-01-24T20:59:06.323Z,8.10
2024-01-24T21:02:48.618Z,8.10
2024-01-24T21:06:30.584Z,8.10
2024-01-24T21:10:13.318Z,8.10
2024-01-24T21:13:55.176Z,8.00
2024-01-24T21:17:38.362Z,8.00
2024-01-24T21:21:20.374Z,8.00
2024-01-24T21:25:02.288Z,8.00
2024-01-24T21:28:44.389Z,7.90
2024-01-24T21:32:26.443Z,7.90
2024-01-24T21:36:08.597Z,7.90
2024-01-24T21:39:50.540Z,7.80
2024-01-24T21:43:32.514Z,7.80
2024-01-24T21:47:14.549Z,7.80
2024-01-24T21:50:56.388Z,7.80
2024-01-24T21:54:40.070Z,7.90
2024-01-24T21:58:21.994Z,7.90
2024-01-24T22:02:04.956Z,7.90
2024-01-24T22:05:46.815Z,8.00
2024-01-24T22:09:28.988Z,8.10
2024-01-24T22:13:10.965Z,8.20
2024-01-24T22:16:55.400Z,8.20
2024-01-24T22:20:37.258Z,8.30
2024-01-24T22:24:20.708Z,8.30
2024-01-24T22:28:02.584Z,8.30
2024-01-24T22:31:44.490Z,8.30
2024-01-24T22:35:26.509Z,8.40
2024-01-24T22:39:08.406Z,8.50
2024-01-24T22:42:50.310Z,8.50
2024-01-24T22:46:32.237Z,8.50
2024-01-24T22:50:14.226Z,8.60
2024-01-24T22:53:56.038Z,8.60
2024-01-24T22:57:37.902Z,8.60
2024-01-24T23:01:19.960Z,8.60
2024-01-24T23:05:02.007Z,8.60
2024-01-24T23:08:44.358Z,8.60
2024-01-24T23:12:26.434Z,8.60
2024-01-24T23:16:08.847Z,8.60
2024-01-24T23:19:52.336Z,8.60
2024-01-24T23:23:34.158Z,8.60
2024-01-24T23:27:16.102Z,8.60
2024-01-24T23:30:58.048Z,8.60
2024-01-24T23:34:40.147Z,8.60
2024-01-24T23:38:21.958Z,8.60
2024-01-24T23:42:04.089Z,8.60
2024-01-24T23:45:46.059Z,8.50
2024-01-24T23:49:28.127Z,8.50
2024-01-24T23:53:10.069Z,8.50
2024-01-24T23:56:52.152Z,8.50
